Terminal Aerodrome Forecast
Issued by NWS Pocatello, ID

Home | Current Version | Previous Version | Text Only | Print | Product List | Glossary On
Versions: 1 2 3 4 5 6 7 8 9 10 11 12 13 14 15 16
853
FTUS45 KPIH 271928 AAA
TAFPIH
TAF AMD
KPIH 271928Z 2719/2818 26015G25KT P6SM VCTS FEW050CB FEW140
     FM280000 25020G30KT P6SM FEW130
     FM280300 22015KT P6SM SKC
     FM280900 20008KT P6SM SKC
     FM281500 23015KT P6SM SKC=

USA.gov is the U.S. government's official web portal to all federal, state and local government web resources and services.